Qasigiannguit

KL  EN  DA
ASIAQ
Weather Now GREENLAND SURVEY
Updated [WGT/WGST] Temperature [°C] Wind [m/s] Air pressure [hPa] Relative humidity [%] Precipitation [mm]
Present Wind chill Speed Max
25.02 07:00-20,20,01,0 ⇓1,91014640,0
25.02 06:00-19,10,00,9 ⇓1,91014600,0
25.02 05:00-18,6-23,81,9 ⇙3,01013610,0
25.02 04:00-19,1-25,12,2 ⇓3,51013640,0
25.02 03:00-19,4-26,42,8 ⇙4,31013670,0
25.02 02:00-19,6-26,02,3 ⇓3,31013690,0
25.02 01:00-18,8-23,71,7 ⇓2,51013710,0
25.02 00:00-19,10,01,2 ⇓2,61012720,0
24.02 23:00-18,8-23,21,5 ⇗2,81012730,0
24.02 22:00-18,2-24,42,4 ⇑4,31012730,0
24.02 21:00-17,5-25,74,0 ⇑5,91011730,0
24.02 20:00-16,8-25,04,2 ⇑5,51010740,0
24.02 19:00-16,6-24,63,9 ⇑5,51009750,0
24.02 18:00-16,4-24,84,4 ⇑7,11008750,0
24.02 17:00-16,6-26,05,4 ⇑7,51008750,0
24.02 16:00-15,7-25,35,9 ⇑7,51007770,0
24.02 15:00-14,8-24,05,6 ⇑7,31005740,0
24.02 14:00-14,6-22,74,5 ⇑6,51004720,1
24.02 13:00-14,7-22,74,4 ⇑5,91003700,0
24.02 12:00-14,6-21,63,5 ⇑5,51002670,0
24.02 11:00-14,90,00,7 ⇙2,11002710,0
24.02 10:00-15,40,00,7 ⇗1,91002690,0
24.02 09:00-16,00,01,0 ⇙2,01001710,0
24.02 08:00-16,60,00,8 ⇙2,31000720,0
24.02 07:00-17,20,00,9 ⇓2,1999720,0
Position: (68.823667,-51.173861)

[Back]